createdAt,value
2019-04-25T00:00:31.450Z,5.94
2019-04-25T00:01:31.293Z,5.92
2019-04-25T00:02:30.899Z,5.92
2019-04-25T00:03:43.593Z,5.92
2019-04-25T00:04:31.127Z,5.92
2019-04-25T00:05:39.185Z,5.87
2019-04-25T00:06:29.801Z,5.84
2019-04-25T00:07:31.253Z,5.94
2019-04-25T00:08:31.122Z,5.81
2019-04-25T00:09:29.780Z,5.90
2019-04-25T00:10:29.770Z,5.80
2019-04-25T00:11:31.170Z,5.88
2019-04-25T00:12:29.740Z,5.88
2019-04-25T00:13:29.734Z,5.79
2019-04-25T00:14:31.347Z,5.83
2019-04-25T00:15:29.716Z,5.88
2019-04-25T00:16:31.153Z,5.80
2019-04-25T00:17:31.375Z,5.80
2019-04-25T00:18:29.669Z,5.81
2019-04-25T00:19:29.663Z,5.83
2019-04-25T00:20:31.126Z,5.83
2019-04-25T00:21:29.680Z,5.80
2019-04-25T00:22:29.659Z,5.88
2019-04-25T00:23:29.613Z,5.73
2019-04-25T00:24:29.614Z,5.84
2019-04-25T00:25:29.590Z,5.80
2019-04-25T00:26:31.105Z,5.83
2019-04-25T00:27:29.611Z,5.76
2019-04-25T00:28:29.601Z,5.74
2019-04-25T00:29:29.548Z,5.67
2019-04-25T00:30:31.177Z,5.74
2019-04-25T00:31:29.526Z,5.69
2019-04-25T00:32:29.519Z,5.69
2019-04-25T00:33:29.516Z,5.69
2019-04-25T00:34:29.527Z,5.72
2019-04-25T00:35:29.572Z,5.72
2019-04-25T00:36:43.460Z,5.69
2019-04-25T00:37:29.460Z,5.69
2019-04-25T00:38:29.451Z,5.76
2019-04-25T00:39:29.440Z,5.72
2019-04-25T00:40:29.498Z,5.69
2019-04-25T00:41:29.419Z,5.61
2019-04-25T00:42:29.408Z,5.65
2019-04-25T00:43:29.409Z,5.70
2019-04-25T00:44:29.426Z,5.58
2019-04-25T00:45:29.369Z,5.58
2019-04-25T00:46:29.385Z,5.54
2019-04-25T00:47:29.362Z,5.59
2019-04-25T00:48:29.348Z,5.43
2019-04-25T00:49:29.329Z,5.51
2019-04-25T00:50:29.333Z,5.55
2019-04-25T00:51:29.311Z,5.49
2019-04-25T00:52:29.375Z,5.47
2019-04-25T00:53:29.290Z,5.44
2019-04-25T00:54:29.285Z,5.38
2019-04-25T00:55:29.268Z,5.38
2019-04-25T00:56:29.245Z,5.40
2019-04-25T00:57:31.915Z,5.40
2019-04-25T00:58:29.235Z,5.37
2019-04-25T00:59:29.212Z,5.36
2019-04-25T01:00:29.229Z,5.40
2019-04-25T01:01:29.195Z,5.37
2019-04-25T01:02:29.208Z,5.36
2019-04-25T01:03:29.231Z,5.37
2019-04-25T01:04:29.698Z,5.38
2019-04-25T01:05:29.169Z,5.41
2019-04-25T01:06:29.142Z,5.49
2019-04-25T01:07:42.209Z,5.62
2019-04-25T01:08:29.111Z,5.51
2019-04-25T01:09:29.158Z,5.44
2019-04-25T01:10:29.101Z,5.44
2019-04-25T01:11:29.086Z,5.34
2019-04-25T01:12:29.085Z,5.37
2019-04-25T01:13:29.060Z,5.34
2019-04-25T01:14:29.045Z,5.29
2019-04-25T01:15:29.277Z,5.18
2019-04-25T01:16:29.024Z,5.22
2019-04-25T01:17:29.010Z,5.18
2019-04-25T01:18:29.390Z,5.07
2019-04-25T01:19:29.006Z,5.12
2019-04-25T01:20:28.994Z,5.05
2019-04-25T01:21:28.970Z,4.97
2019-04-25T01:22:29.711Z,4.95
2019-04-25T01:23:28.945Z,4.95
2019-04-25T01:24:28.958Z,4.95
2019-04-25T01:25:38.599Z,5.10
2019-04-25T01:26:29.910Z,5.02
2019-04-25T01:27:28.903Z,5.05
2019-04-25T01:28:28.893Z,5.05
2019-04-25T01:29:28.960Z,5.07
2019-04-25T01:30:29.048Z,4.97
2019-04-25T01:31:28.874Z,4.97
2019-04-25T01:32:28.850Z,5.00
2019-04-25T01:33:28.858Z,5.00
2019-04-25T01:34:28.823Z,4.97
2019-04-25T01:35:28.819Z,5.00
2019-04-25T01:36:28.992Z,4.97
2019-04-25T01:37:28.802Z,5.07
2019-04-25T01:38:43.258Z,5.02
2019-04-25T01:39:28.778Z,5.16
2019-04-25T01:40:28.796Z,5.25
2019-04-25T01:41:28.749Z,5.33
2019-04-25T01:42:28.747Z,5.31
2019-04-25T01:43:28.731Z,5.33
2019-04-25T01:44:28.725Z,5.31
2019-04-25T01:45:28.708Z,5.28
2019-04-25T01:46:28.713Z,5.25
2019-04-25T01:47:28.731Z,5.15
2019-04-25T01:48:28.668Z,5.13
2019-04-25T01:49:28.672Z,5.20
2019-04-25T01:50:28.656Z,5.12
2019-04-25T01:51:29.237Z,5.12
2019-04-25T01:52:28.629Z,5.01
2019-04-25T01:53:28.781Z,5.01
2019-04-25T01:54:28.638Z,5.04
2019-04-25T01:55:28.590Z,4.98
2019-04-25T01:56:28.582Z,4.97
2019-04-25T01:57:28.566Z,4.97
2019-04-25T01:58:28.613Z,4.97
2019-04-25T01:59:28.591Z,4.89
2019-04-25T02:00:28.536Z,4.87
2019-04-25T02:01:28.530Z,4.90
2019-04-25T02:02:28.529Z,4.90
2019-04-25T02:03:28.508Z,4.79
2019-04-25T02:04:28.506Z,4.74
2019-04-25T02:05:28.505Z,4.74
2019-04-25T02:06:28.468Z,4.68
2019-04-25T02:07:28.491Z,4.83
2019-04-25T02:08:28.453Z,4.68
2019-04-25T02:09:41.300Z,4.75
2019-04-25T02:10:28.430Z,4.67
2019-04-25T02:11:35.804Z,4.67
2019-04-25T02:12:28.404Z,4.63
2019-04-25T02:13:28.400Z,4.68
2019-04-25T02:14:28.383Z,4.68
2019-04-25T02:15:28.375Z,4.68
2019-04-25T02:16:28.358Z,4.68
2019-04-25T02:17:28.362Z,4.64
2019-04-25T02:18:28.336Z,4.68
2019-04-25T02:19:28.334Z,4.68
2019-04-25T02:20:28.326Z,4.61
2019-04-25T02:21:28.331Z,4.63
2019-04-25T02:22:28.341Z,4.67
2019-04-25T02:23:28.297Z,4.67
2019-04-25T02:24:28.278Z,4.66
2019-04-25T02:25:28.265Z,4.61
2019-04-25T02:26:28.258Z,4.64
2019-04-25T02:27:28.256Z,4.68
2019-04-25T02:28:28.242Z,4.74
2019-04-25T02:29:28.222Z,4.70
2019-04-25T02:30:28.212Z,4.76
2019-04-25T02:31:28.204Z,4.67
2019-04-25T02:32:28.200Z,4.67
2019-04-25T02:33:28.260Z,4.68
2019-04-25T02:34:28.180Z,4.67
2019-04-25T02:35:28.169Z,4.71
2019-04-25T02:36:28.157Z,4.68
2019-04-25T02:37:28.135Z,4.70
2019-04-25T02:38:28.127Z,4.83
2019-04-25T02:39:28.123Z,4.86
2019-04-25T02:40:28.108Z,4.82
2019-04-25T02:41:28.091Z,4.78
2019-04-25T02:42:38.180Z,4.71
2019-04-25T02:43:28.069Z,4.78
2019-04-25T02:44:28.067Z,4.83
2019-04-25T02:45:28.064Z,4.83
2019-04-25T02:46:28.040Z,4.83
2019-04-25T02:47:28.025Z,4.86
2019-04-25T02:48:28.013Z,4.82
2019-04-25T02:49:35.376Z,4.71
2019-04-25T02:50:29.004Z,4.83
2019-04-25T02:51:27.993Z,4.83
2019-04-25T02:52:27.982Z,4.75
2019-04-25T02:53:27.959Z,4.71
2019-04-25T02:54:27.959Z,4.78
2019-04-25T02:55:31.700Z,4.83
2019-04-25T02:56:34.388Z,4.74
2019-04-25T02:57:28.925Z,4.76
2019-04-25T02:58:27.906Z,4.86
2019-04-25T02:59:27.926Z,4.90
2019-04-25T03:00:27.895Z,4.87
2019-04-25T03:01:27.910Z,4.87
2019-04-25T03:02:27.875Z,4.92
2019-04-25T03:03:27.848Z,5.04
2019-04-25T03:04:27.838Z,5.02
2019-04-25T03:05:27.849Z,4.95
2019-04-25T03:06:27.812Z,4.98
2019-04-25T03:07:27.890Z,4.97
2019-04-25T03:08:27.814Z,4.92
2019-04-25T03:09:27.794Z,4.95
2019-04-25T03:10:27.771Z,5.02
2019-04-25T03:11:27.763Z,5.08
2019-04-25T03:12:33.257Z,5.18
2019-04-25T03:14:44.413Z,5.22
2019-04-25T03:15:44.138Z,5.28
2019-04-25T03:16:42.111Z,5.29
2019-04-25T03:17:44.371Z,5.31
2019-04-25T03:18:44.212Z,5.34
2019-04-25T03:19:43.998Z,5.36
2019-04-25T03:20:45.006Z,5.40
2019-04-25T03:21:42.045Z,5.40
2019-04-25T03:22:44.258Z,5.46
2019-04-25T03:23:43.034Z,5.55
2019-04-25T03:24:42.047Z,5.73
2019-04-25T03:25:43.492Z,5.72
2019-04-25T03:26:41.994Z,5.81
2019-04-25T03:27:41.974Z,5.84
2019-04-25T03:28:43.678Z,5.94
2019-04-25T03:29:41.949Z,6.01
2019-04-25T03:30:44.729Z,6.16
2019-04-25T03:31:44.697Z,6.56
2019-04-25T03:32:44.819Z,6.95
2019-04-25T03:33:41.932Z,7.36
2019-04-25T03:34:43.418Z,7.59
2019-04-25T03:35:43.213Z,8.09
2019-04-25T03:36:43.701Z,8.64
2019-04-25T03:37:43.648Z,9.52
2019-04-25T03:38:44.058Z,10.12
2019-04-25T03:39:43.544Z,10.62
2019-04-25T03:40:41.831Z,10.98
2019-04-25T03:41:41.822Z,11.31
2019-04-25T03:42:41.827Z,11.37
2019-04-25T03:43:41.843Z,11.49
2019-04-25T03:44:55.396Z,11.73
2019-04-25T03:45:43.206Z,11.89
2019-04-25T03:46:41.762Z,12.36
2019-04-25T03:47:43.124Z,12.37
2019-04-25T03:48:41.801Z,12.53
2019-04-25T03:49:43.323Z,12.72
2019-04-25T03:50:41.731Z,13.01
2019-04-25T03:51:41.713Z,13.26
2019-04-25T03:52:43.460Z,13.50
2019-04-25T03:53:41.693Z,13.73
2019-04-25T03:54:43.365Z,13.91
2019-04-25T03:55:41.684Z,14.26
2019-04-25T03:56:53.196Z,14.41
2019-04-25T03:57:44.260Z,14.70
2019-04-25T03:58:41.658Z,14.87
2019-04-25T03:59:41.625Z,15.02
2019-04-25T04:00:41.706Z,15.26
2019-04-25T04:01:41.613Z,15.43
2019-04-25T04:02:41.609Z,15.32
2019-04-25T04:03:41.592Z,15.22
2019-04-25T04:04:43.404Z,15.26
2019-04-25T04:05:41.553Z,15.62
2019-04-25T04:06:41.592Z,16.00
2019-04-25T04:07:41.554Z,16.24
2019-04-25T04:08:41.519Z,16.24
2019-04-25T04:09:41.543Z,16.55
2019-04-25T04:10:43.188Z,16.57
2019-04-25T04:11:41.492Z,16.87
2019-04-25T04:12:41.532Z,17.05
2019-04-25T04:13:41.474Z,17.24
2019-04-25T04:14:43.707Z,17.32
2019-04-25T04:15:55.322Z,17.23
2019-04-25T04:16:41.432Z,17.34
2019-04-25T04:17:41.428Z,17.88
2019-04-25T04:18:41.431Z,17.73
2019-04-25T04:19:41.397Z,17.37
2019-04-25T04:20:41.406Z,17.37
2019-04-25T04:21:43.137Z,17.28
2019-04-25T04:22:41.367Z,17.53
2019-04-25T04:23:42.957Z,17.52
2019-04-25T04:24:41.384Z,17.86
2019-04-25T04:25:41.335Z,17.90
2019-04-25T04:26:41.331Z,17.97
2019-04-25T04:27:41.316Z,18.09
2019-04-25T04:28:41.441Z,18.34
2019-04-25T04:29:41.311Z,19.01
2019-04-25T04:30:41.327Z,19.34
2019-04-25T04:31:41.288Z,19.60
2019-04-25T04:32:41.301Z,19.77
2019-04-25T04:33:41.256Z,20.14
2019-04-25T04:34:41.259Z,20.17
2019-04-25T04:35:41.225Z,20.52
2019-04-25T04:36:41.230Z,21.10
2019-04-25T04:37:41.210Z,21.65
2019-04-25T04:38:41.262Z,22.03
2019-04-25T04:39:41.239Z,22.04
2019-04-25T04:40:41.216Z,22.10
2019-04-25T04:41:41.164Z,21.94
2019-04-25T04:42:41.152Z,21.48
2019-04-25T04:43:41.143Z,21.04
2019-04-25T04:44:41.145Z,20.42
2019-04-25T04:45:43.289Z,19.67
2019-04-25T04:46:54.348Z,17.98
2019-04-25T04:47:41.096Z,17.09
2019-04-25T04:48:41.087Z,16.46
2019-04-25T04:49:49.617Z,15.91
2019-04-25T04:50:41.070Z,15.69
2019-04-25T04:51:41.054Z,15.81
2019-04-25T04:52:41.104Z,16.13
2019-04-25T04:53:41.037Z,16.58
2019-04-25T04:54:41.028Z,16.89
2019-04-25T04:55:41.068Z,16.95
2019-04-25T04:56:41.091Z,16.46
2019-04-25T04:57:41.111Z,16.09
2019-04-25T04:58:40.997Z,15.88
2019-04-25T04:59:40.973Z,15.88
2019-04-25T05:00:40.967Z,15.94
2019-04-25T05:01:40.962Z,15.92
2019-04-25T05:02:40.965Z,15.88
2019-04-25T05:03:41.845Z,15.70
2019-04-25T05:04:40.916Z,15.76
2019-04-25T05:05:40.925Z,15.72
2019-04-25T05:06:40.947Z,15.44
2019-04-25T05:07:40.913Z,15.22
2019-04-25T05:08:40.913Z,15.07
2019-04-25T05:09:40.859Z,15.02
2019-04-25T05:10:40.856Z,15.05
2019-04-25T05:11:40.839Z,15.18
2019-04-25T05:12:40.834Z,15.26
2019-04-25T05:13:40.846Z,15.54
2019-04-25T05:14:40.805Z,15.80
2019-04-25T05:15:40.805Z,16.16
2019-04-25T05:16:40.796Z,16.50
2019-04-25T05:17:40.766Z,17.30
2019-04-25T05:18:40.777Z,17.52
2019-04-25T05:19:40.831Z,17.44
2019-04-25T05:20:54.343Z,17.09
2019-04-25T05:21:40.727Z,17.14
2019-04-25T05:22:40.711Z,17.35
2019-04-25T05:23:40.723Z,17.52
2019-04-25T05:24:40.689Z,17.65
2019-04-25T05:25:48.888Z,17.68
2019-04-25T05:26:40.679Z,17.63
2019-04-25T05:27:57.690Z,17.50
2019-04-25T05:28:41.653Z,17.65
2019-04-25T05:29:40.641Z,17.68
2019-04-25T05:30:40.920Z,17.23
2019-04-25T05:31:40.619Z,16.74
2019-04-25T05:32:40.788Z,16.95
2019-04-25T05:33:40.881Z,17.12
2019-04-25T05:34:40.705Z,17.13
2019-04-25T05:35:40.580Z,17.24
2019-04-25T05:36:40.616Z,17.14
2019-04-25T05:37:40.627Z,17.41
2019-04-25T05:38:40.543Z,17.09
2019-04-25T05:39:40.530Z,17.05
2019-04-25T05:40:40.552Z,17.17
2019-04-25T05:41:40.511Z,17.01
2019-04-25T05:42:40.536Z,17.02
2019-04-25T05:43:40.485Z,17.34
2019-04-25T05:44:40.476Z,17.72
2019-04-25T05:45:40.469Z,18.15
2019-04-25T05:46:40.493Z,18.06
2019-04-25T05:47:40.463Z,18.11
2019-04-25T05:48:40.446Z,18.15
2019-04-25T05:49:40.421Z,17.98
2019-04-25T05:50:40.435Z,18.55
2019-04-25T05:51:40.414Z,18.82
2019-04-25T05:52:40.435Z,19.07
2019-04-25T05:53:40.479Z,19.70
2019-04-25T05:54:40.540Z,20.18
2019-04-25T05:55:40.359Z,19.47
2019-04-25T05:56:53.742Z,19.71
2019-04-25T05:57:47.357Z,19.77
2019-04-25T05:58:41.349Z,20.00
2019-04-25T05:59:40.316Z,20.22
2019-04-25T06:00:40.312Z,20.40
2019-04-25T06:01:40.293Z,19.62
2019-04-25T06:02:40.300Z,19.09
2019-04-25T06:03:40.350Z,18.81
2019-04-25T06:05:51.149Z,18.78
2019-04-25T06:06:51.139Z,19.19
2019-04-25T06:07:59.626Z,19.04
2019-04-25T06:08:51.116Z,19.05
2019-04-25T06:09:51.142Z,19.27
2019-04-25T06:10:51.148Z,19.45
2019-04-25T06:11:51.076Z,19.60
2019-04-25T06:12:51.113Z,19.57
2019-04-25T06:13:51.064Z,19.70
2019-04-25T06:14:51.050Z,19.35
2019-04-25T06:15:51.089Z,18.70
2019-04-25T06:16:51.022Z,18.26
2019-04-25T06:17:51.125Z,18.24
2019-04-25T06:18:50.994Z,17.91
2019-04-25T06:19:50.995Z,17.75
2019-04-25T06:20:50.989Z,17.94
2019-04-25T06:21:51.003Z,17.57
2019-04-25T06:22:50.954Z,17.12
2019-04-25T06:23:50.945Z,17.05
2019-04-25T06:24:50.943Z,17.10
2019-04-25T06:25:53.705Z,16.80
2019-04-25T06:26:50.914Z,16.89
2019-04-25T06:27:56.360Z,16.82
2019-04-25T06:28:57.724Z,16.95
2019-04-25T06:29:58.309Z,17.12
2019-04-25T06:30:51.912Z,17.22
2019-04-25T06:31:50.863Z,17.47
2019-04-25T06:32:50.863Z,17.49
2019-04-25T06:33:51.002Z,17.31
2019-04-25T06:34:50.832Z,17.02
2019-04-25T06:35:50.863Z,16.83
2019-04-25T06:36:51.724Z,17.04
2019-04-25T06:37:50.792Z,17.13
2019-04-25T06:39:01.283Z,17.24
2019-04-25T06:39:50.771Z,17.46
2019-04-25T06:40:50.821Z,17.66
2019-04-25T06:41:50.754Z,17.69
2019-04-25T06:42:50.786Z,17.68
2019-04-25T06:43:50.737Z,17.76
2019-04-25T06:44:50.752Z,17.86
2019-04-25T06:45:50.709Z,17.72
2019-04-25T06:46:50.696Z,17.65
2019-04-25T06:47:50.694Z,17.52
2019-04-25T06:48:50.680Z,17.49
2019-04-25T06:49:50.655Z,17.49
2019-04-25T06:50:50.703Z,17.38
2019-04-25T06:51:50.646Z,17.42
2019-04-25T06:52:50.737Z,17.50
2019-04-25T06:53:50.616Z,17.47
2019-04-25T06:54:50.608Z,17.34
2019-04-25T06:55:50.591Z,17.16
2019-04-25T06:56:50.612Z,17.04
2019-04-25T06:57:50.596Z,16.82
2019-04-25T06:58:50.600Z,16.82
2019-04-25T06:59:50.553Z,16.95
2019-04-25T07:00:58.867Z,17.07
2019-04-25T07:01:51.545Z,17.24
2019-04-25T07:02:50.523Z,17.37
2019-04-25T07:03:50.505Z,17.47
2019-04-25T07:04:51.595Z,17.65
2019-04-25T07:05:50.489Z,17.22
2019-04-25T07:06:50.516Z,17.22
2019-04-25T07:07:50.492Z,17.23
2019-04-25T07:08:50.457Z,17.52
2019-04-25T07:10:04.613Z,17.71
2019-04-25T07:10:50.424Z,17.60
2019-04-25T07:11:50.433Z,17.47
2019-04-25T07:12:50.440Z,17.47
2019-04-25T07:13:51.419Z,17.54
2019-04-25T07:14:50.387Z,17.41
2019-04-25T07:15:51.402Z,17.30
2019-04-25T07:16:50.361Z,17.50
2019-04-25T07:17:50.391Z,17.73
2019-04-25T07:18:50.345Z,17.72
2019-04-25T07:19:50.342Z,17.52
2019-04-25T07:20:50.326Z,17.31
2019-04-25T07:21:50.331Z,17.19
2019-04-25T07:22:50.312Z,17.24
2019-04-25T07:23:50.336Z,17.44
2019-04-25T07:24:50.281Z,17.53
2019-04-25T07:25:50.271Z,17.76
2019-04-25T07:26:50.319Z,17.95
2019-04-25T07:27:50.240Z,18.03
2019-04-25T07:28:50.233Z,17.94
2019-04-25T07:29:50.269Z,17.76
2019-04-25T07:30:52.718Z,17.95
2019-04-25T07:31:50.192Z,18.15
2019-04-25T07:32:50.193Z,18.08
2019-04-25T07:33:50.192Z,18.00
2019-04-25T07:34:50.179Z,17.93
2019-04-25T07:35:50.199Z,18.00
2019-04-25T07:36:50.149Z,18.03
2019-04-25T07:37:50.213Z,17.91
2019-04-25T07:38:50.121Z,17.88
2019-04-25T07:39:50.112Z,17.95
2019-04-25T07:41:03.553Z,17.84
2019-04-25T07:41:50.080Z,17.72
2019-04-25T07:42:50.083Z,17.41
2019-04-25T07:43:50.063Z,17.78
2019-04-25T07:44:52.979Z,17.72
2019-04-25T07:45:50.046Z,17.68
2019-04-25T07:46:50.040Z,17.66
2019-04-25T07:47:50.139Z,17.75
2019-04-25T07:48:50.070Z,17.95
2019-04-25T07:49:49.993Z,18.03
2019-04-25T07:50:50.009Z,18.02
2019-04-25T07:51:49.976Z,18.08
2019-04-25T07:52:49.980Z,18.26
2019-04-25T07:53:49.976Z,18.51
2019-04-25T07:54:50.161Z,18.55
2019-04-25T07:55:49.928Z,18.64
2019-04-25T07:56:49.919Z,18.53
2019-04-25T07:57:49.902Z,18.64
2019-04-25T07:58:52.721Z,18.83
2019-04-25T07:59:51.640Z,18.94
2019-04-25T08:00:49.871Z,19.07
2019-04-25T08:01:49.885Z,19.34
2019-04-25T08:02:50.201Z,19.32
2019-04-25T08:03:49.897Z,19.22
2019-04-25T08:04:50.030Z,19.17
2019-04-25T08:05:49.848Z,19.42
2019-04-25T08:06:49.799Z,19.63
2019-04-25T08:07:49.793Z,19.64
2019-04-25T08:08:49.785Z,19.87
2019-04-25T08:09:49.774Z,19.90
2019-04-25T08:10:49.791Z,20.03
2019-04-25T08:12:00.875Z,19.67
2019-04-25T08:12:49.903Z,19.70
2019-04-25T08:13:53.346Z,19.72
2019-04-25T08:14:49.715Z,19.81
2019-04-25T08:15:49.725Z,19.67
2019-04-25T08:16:49.782Z,19.56
2019-04-25T08:17:49.682Z,19.67
2019-04-25T08:18:49.671Z,19.67
2019-04-25T08:19:49.672Z,19.57
2019-04-25T08:20:49.658Z,19.45
2019-04-25T08:21:49.694Z,19.44
2019-04-25T08:22:56.584Z,19.38
2019-04-25T08:23:50.618Z,19.47
2019-04-25T08:24:49.613Z,19.34
2019-04-25T08:25:49.597Z,19.20
2019-04-25T08:26:49.582Z,18.85
2019-04-25T08:27:49.608Z,19.04
2019-04-25T08:28:55.143Z,19.07
2019-04-25T08:29:50.560Z,18.89
2019-04-25T08:30:49.545Z,18.88
2019-04-25T08:31:49.558Z,18.85
2019-04-25T08:32:49.580Z,18.79
2019-04-25T08:33:49.522Z,18.73
2019-04-25T08:34:49.502Z,18.73
2019-04-25T08:36:05.835Z,18.86
2019-04-25T08:36:50.493Z,18.91
2019-04-25T08:37:49.467Z,18.97
2019-04-25T08:38:49.478Z,19.08
2019-04-25T08:39:49.471Z,19.34
2019-04-25T08:40:49.438Z,19.37
2019-04-25T08:41:49.421Z,19.57
2019-04-25T08:43:03.531Z,19.67
2019-04-25T08:43:49.402Z,19.71
2019-04-25T08:44:49.431Z,19.67
2019-04-25T08:45:49.433Z,19.55
2019-04-25T08:46:49.368Z,19.67
2019-04-25T08:47:49.367Z,19.78
2019-04-25T08:48:49.353Z,19.63
2019-04-25T08:49:49.659Z,19.62
2019-04-25T08:50:49.377Z,19.57
2019-04-25T08:51:49.318Z,19.85
2019-04-25T08:52:49.315Z,19.81
2019-04-25T08:53:49.289Z,19.81
2019-04-25T08:54:49.291Z,19.70
2019-04-25T08:55:49.265Z,19.89
2019-04-25T08:56:49.303Z,19.97
2019-04-25T08:57:49.432Z,20.08
2019-04-25T08:59:01.458Z,20.14
2019-04-25T08:59:52.703Z,20.21
2019-04-25T09:00:59.338Z,20.34
2019-04-25T09:01:50.217Z,20.50
2019-04-25T09:02:49.196Z,20.60
2019-04-25T09:03:49.181Z,20.85
2019-04-25T09:04:57.687Z,20.75
2019-04-25T09:05:49.317Z,20.64
2019-04-25T09:06:49.252Z,20.70
2019-04-25T09:07:49.147Z,20.75
2019-04-25T09:08:49.174Z,20.71
2019-04-25T09:09:49.160Z,20.56
2019-04-25T09:10:49.130Z,20.36
2019-04-25T09:11:49.123Z,20.40
2019-04-25T09:12:49.085Z,20.34
2019-04-25T09:13:49.136Z,20.11
2019-04-25T09:14:49.082Z,20.26
2019-04-25T09:15:49.236Z,20.46
2019-04-25T09:16:49.082Z,20.59
2019-04-25T09:17:49.462Z,20.67
2019-04-25T09:18:56.996Z,20.70
2019-04-25T09:19:49.043Z,20.82
2019-04-25T09:20:49.004Z,20.71
2019-04-25T09:21:49.620Z,20.59
2019-04-25T09:22:50.280Z,20.10
2019-04-25T09:23:49.012Z,20.11
2019-04-25T09:24:50.119Z,20.18
2019-04-25T09:25:54.329Z,20.27
2019-04-25T09:26:49.650Z,20.42
2019-04-25T09:27:48.935Z,20.59
2019-04-25T09:28:49.451Z,20.37
2019-04-25T09:29:49.037Z,20.19
2019-04-25T09:30:48.964Z,20.11
2019-04-25T09:31:48.887Z,19.99
2019-04-25T09:32:48.885Z,19.99
2019-04-25T09:33:48.882Z,19.82
2019-04-25T09:34:48.862Z,19.94
2019-04-25T09:35:48.845Z,19.94
2019-04-25T09:36:48.863Z,19.97
2019-04-25T09:37:48.880Z,19.93
2019-04-25T09:38:48.795Z,19.89
2019-04-25T09:39:48.875Z,19.89
2019-04-25T09:40:48.892Z,19.67
2019-04-25T09:41:48.877Z,19.47
2019-04-25T09:42:48.817Z,19.32
2019-04-25T09:43:48.776Z,19.44
2019-04-25T09:44:48.767Z,19.34
2019-04-25T09:45:48.799Z,19.48
2019-04-25T09:46:48.707Z,19.63
2019-04-25T09:47:48.707Z,19.72
2019-04-25T09:48:48.675Z,19.79
2019-04-25T09:51:03.573Z,19.78
2019-04-25T09:52:03.410Z,19.70
2019-04-25T09:53:04.548Z,19.49
2019-04-25T09:54:03.566Z,19.53
2019-04-25T09:55:03.532Z,19.59
2019-04-25T09:56:04.137Z,19.67
2019-04-25T09:57:03.749Z,19.84
2019-04-25T09:58:04.077Z,19.97
2019-04-25T09:59:11.332Z,19.93
2019-04-25T10:00:03.617Z,19.99
2019-04-25T10:01:03.793Z,19.99
2019-04-25T10:02:03.123Z,20.12
2019-04-25T10:03:04.531Z,19.79
2019-04-25T10:04:03.096Z,19.97
2019-04-25T10:05:04.032Z,20.00
2019-04-25T10:06:03.382Z,20.14
2019-04-25T10:07:03.478Z,20.04
2019-04-25T10:08:03.465Z,20.02
2019-04-25T10:09:03.078Z,20.08
2019-04-25T10:10:03.765Z,20.17
2019-04-25T10:11:04.080Z,19.92
2019-04-25T10:12:03.005Z,19.84
2019-04-25T10:13:04.836Z,19.77
2019-04-25T10:14:04.547Z,19.87
2019-04-25T10:15:04.441Z,19.96
2019-04-25T10:16:02.967Z,20.07
2019-04-25T10:17:03.811Z,20.17
2019-04-25T10:18:02.939Z,20.26
2019-04-25T10:19:03.408Z,20.37
2019-04-25T10:20:02.922Z,20.39
2019-04-25T10:21:04.251Z,20.52
2019-04-25T10:22:03.392Z,20.56
2019-04-25T10:23:02.883Z,20.30
2019-04-25T10:24:03.595Z,20.02
2019-04-25T10:25:03.341Z,19.84
2019-04-25T10:26:03.850Z,19.77
2019-04-25T10:27:03.710Z,19.60
2019-04-25T10:28:04.359Z,19.45
2019-04-25T10:29:02.817Z,19.44
2019-04-25T10:30:19.947Z,19.67
2019-04-25T10:31:03.801Z,19.78
2019-04-25T10:32:04.285Z,19.64
2019-04-25T10:33:04.093Z,19.62
2019-04-25T10:34:03.815Z,19.63
2019-04-25T10:35:02.754Z,19.52
2019-04-25T10:36:04.191Z,19.62
2019-04-25T10:37:03.270Z,19.55
2019-04-25T10:38:03.522Z,19.56
2019-04-25T10:39:08.655Z,19.70
2019-04-25T10:40:04.313Z,19.71
2019-04-25T10:41:04.255Z,19.42
2019-04-25T10:42:03.579Z,19.63
2019-04-25T10:43:04.021Z,19.71
2019-04-25T10:44:03.344Z,19.70
2019-04-25T10:45:04.172Z,19.71
2019-04-25T10:46:03.445Z,19.64
2019-04-25T10:47:02.677Z,19.77
2019-04-25T10:48:04.260Z,19.96
2019-04-25T10:49:04.372Z,20.08
2019-04-25T10:50:03.797Z,19.99
2019-04-25T10:51:04.148Z,19.99
2019-04-25T10:52:02.560Z,20.11
2019-04-25T10:53:04.039Z,20.21
2019-04-25T10:54:04.173Z,20.30
2019-04-25T10:55:04.212Z,20.22
2019-04-25T10:56:05.567Z,20.19
2019-04-25T10:57:02.508Z,20.11
2019-04-25T10:58:03.933Z,19.96
2019-04-25T10:59:04.142Z,20.03
2019-04-25T11:00:07.422Z,20.22
2019-04-25T11:02:17.458Z,20.52
2019-04-25T11:03:17.400Z,20.44
2019-04-25T11:04:17.394Z,20.36
2019-04-25T11:05:17.380Z,20.08
2019-04-25T11:06:17.375Z,20.14
2019-04-25T11:07:17.389Z,20.18
2019-04-25T11:08:17.368Z,20.26
2019-04-25T11:09:17.341Z,20.04
2019-04-25T11:10:17.329Z,19.96
2019-04-25T11:11:17.315Z,19.90
2019-04-25T11:12:17.327Z,19.81
2019-04-25T11:13:17.302Z,19.70
2019-04-25T11:14:17.281Z,19.89
2019-04-25T11:15:17.305Z,19.82
2019-04-25T11:16:17.260Z,19.84
2019-04-25T11:17:17.267Z,20.00
2019-04-25T11:18:17.259Z,20.08
2019-04-25T11:19:17.245Z,20.17
2019-04-25T11:20:17.269Z,20.26
2019-04-25T11:21:17.208Z,20.18
2019-04-25T11:22:17.232Z,20.03
2019-04-25T11:23:17.185Z,20.00
2019-04-25T11:24:17.176Z,19.89
2019-04-25T11:25:17.459Z,19.89
2019-04-25T11:26:17.152Z,20.04
2019-04-25T11:27:17.140Z,19.85
2019-04-25T11:28:17.170Z,19.84
2019-04-25T11:29:17.917Z,19.89
2019-04-25T11:30:17.110Z,19.82
2019-04-25T11:31:17.101Z,19.93
2019-04-25T11:32:28.946Z,19.79
2019-04-25T11:33:17.070Z,19.77
2019-04-25T11:34:17.078Z,19.62
2019-04-25T11:35:17.051Z,19.66
2019-04-25T11:36:17.113Z,19.60
2019-04-25T11:37:17.041Z,19.60
2019-04-25T11:38:17.018Z,19.48
2019-04-25T11:39:17.012Z,19.52
2019-04-25T11:40:17.024Z,19.38
2019-04-25T11:41:16.990Z,19.62
2019-04-25T11:42:16.991Z,19.66
2019-04-25T11:43:16.962Z,19.64
2019-04-25T11:44:16.966Z,19.67
2019-04-25T11:45:17.074Z,19.66
2019-04-25T11:46:16.935Z,19.79
2019-04-25T11:47:16.922Z,19.99
2019-04-25T11:48:16.918Z,19.71
2019-04-25T11:49:16.901Z,19.42
2019-04-25T11:50:16.934Z,19.59
2019-04-25T11:51:16.882Z,19.74
2019-04-25T11:52:26.904Z,19.84
2019-04-25T11:53:20.064Z,19.56
2019-04-25T11:54:16.844Z,19.62
2019-04-25T11:55:16.841Z,19.87
2019-04-25T11:56:16.835Z,19.92
2019-04-25T11:57:16.824Z,19.94
2019-04-25T11:58:16.797Z,19.92
2019-04-25T11:59:16.819Z,19.87
2019-04-25T12:00:22.105Z,19.96
2019-04-25T12:01:17.864Z,19.97
2019-04-25T12:02:16.755Z,19.97
2019-04-25T12:03:30.963Z,19.67
2019-04-25T12:04:16.728Z,19.84
2019-04-25T12:05:16.768Z,19.70
2019-04-25T12:06:16.709Z,19.67
2019-04-25T12:07:16.707Z,19.70
2019-04-25T12:08:16.689Z,19.64
2019-04-25T12:09:16.674Z,19.67
2019-04-25T12:10:16.665Z,19.59
2019-04-25T12:11:16.705Z,19.56
2019-04-25T12:12:16.704Z,19.59
2019-04-25T12:13:16.629Z,19.67
2019-04-25T12:14:16.619Z,19.63
2019-04-25T12:15:16.607Z,19.64
2019-04-25T12:16:16.595Z,19.57
2019-04-25T12:17:16.591Z,19.64
2019-04-25T12:18:16.616Z,19.70
2019-04-25T12:19:16.568Z,19.60
2019-04-25T12:20:16.552Z,19.67
2019-04-25T12:21:16.549Z,19.72
2019-04-25T12:22:16.529Z,19.67
2019-04-25T12:23:16.519Z,19.79
2019-04-25T12:24:16.544Z,19.84
2019-04-25T12:25:16.497Z,19.77
2019-04-25T12:26:16.491Z,19.79
2019-04-25T12:27:16.474Z,19.70
2019-04-25T12:28:16.463Z,19.63
2019-04-25T12:29:16.452Z,19.60
2019-04-25T12:30:16.513Z,19.64
2019-04-25T12:31:16.428Z,19.77
2019-04-25T12:32:16.418Z,19.57
2019-04-25T12:33:21.203Z,19.60
2019-04-25T12:35:31.288Z,19.52
2019-04-25T12:36:31.215Z,19.48
2019-04-25T12:37:31.186Z,19.72
2019-04-25T12:38:31.178Z,19.82
2019-04-25T12:39:31.169Z,19.78
2019-04-25T12:40:31.155Z,19.56
2019-04-25T12:41:31.187Z,19.52
2019-04-25T12:42:31.174Z,19.64
2019-04-25T12:43:31.136Z,19.66
2019-04-25T12:44:31.108Z,19.70
2019-04-25T12:45:31.101Z,19.63
2019-04-25T12:46:31.105Z,19.55
2019-04-25T12:47:31.127Z,19.57
2019-04-25T12:48:31.066Z,19.52
2019-04-25T12:49:31.068Z,19.71
2019-04-25T12:50:31.049Z,19.67
2019-04-25T12:51:31.066Z,19.71
2019-04-25T12:52:31.125Z,19.78
2019-04-25T12:53:31.044Z,19.66
2019-04-25T12:54:30.993Z,19.78
2019-04-25T12:55:30.994Z,19.84
2019-04-25T12:56:31.012Z,19.89
2019-04-25T12:57:31.837Z,19.97
2019-04-25T12:58:30.949Z,19.82
2019-04-25T12:59:30.973Z,19.81
2019-04-25T13:00:30.935Z,19.94
2019-04-25T13:01:30.922Z,19.97
2019-04-25T13:02:33.707Z,20.03
2019-04-25T13:03:30.908Z,19.81
2019-04-25T13:04:30.949Z,19.64
2019-04-25T13:05:41.736Z,19.64